createdAt,value
2019-01-05T00:02:24.983Z,1.13
2019-01-05T00:05:25.039Z,1.14
2019-01-05T00:08:11.443Z,1.13
2019-01-05T00:10:59.227Z,1.13
2019-01-05T00:13:45.691Z,1.15
2019-01-05T00:16:32.378Z,1.17
2019-01-05T00:19:35.779Z,1.16
2019-01-05T00:22:22.647Z,1.14
2019-01-05T00:25:09.408Z,1.18
2019-01-05T00:28:12.212Z,1.19
2019-01-05T00:30:52.658Z,1.18
2019-01-05T00:33:34.495Z,1.22
2019-01-05T00:36:30.943Z,1.20
2019-01-05T00:39:17.628Z,1.20
2019-01-05T00:42:05.360Z,1.21
2019-01-05T00:44:59.218Z,1.20
2019-01-05T00:47:48.502Z,1.20
2019-01-05T00:50:42.299Z,1.17
2019-01-05T00:53:28.823Z,1.19
2019-01-05T00:56:15.579Z,1.21
2019-01-05T00:59:05.633Z,1.20
2019-01-05T01:01:51.974Z,1.22
2019-01-05T01:04:54.944Z,1.21
2019-01-05T01:07:41.544Z,1.14
2019-01-05T01:10:41.259Z,1.16
2019-01-05T01:13:27.947Z,1.13
2019-01-05T01:16:08.927Z,1.06
2019-01-05T01:19:11.959Z,1.05
2019-01-05T01:22:01.496Z,1.06
2019-01-05T01:25:04.363Z,1.03
2019-01-05T01:28:07.278Z,1.05
2019-01-05T01:30:53.822Z,1.03
2019-01-05T01:33:55.608Z,1.00
2019-01-05T01:36:50.694Z,0.96
2019-01-05T01:39:39.208Z,0.94
2019-01-05T01:42:43.286Z,0.96
2019-01-05T01:45:33.784Z,0.99
2019-01-05T01:48:30.600Z,1.04
2019-01-05T01:51:17.114Z,1.05
2019-01-05T01:54:00.568Z,1.08
2019-01-05T01:56:48.466Z,1.08
2019-01-05T01:59:36.436Z,1.06
2019-01-05T02:02:17.576Z,1.08
2019-01-05T02:05:05.435Z,1.10
2019-01-05T02:07:56.307Z,1.09
2019-01-05T02:10:43.375Z,1.05
2019-01-05T02:13:43.586Z,1.04
2019-01-05T02:16:38.517Z,1.04
2019-01-05T02:19:47.391Z,1.07
2019-01-05T02:22:58.175Z,1.09
2019-01-05T02:25:49.963Z,1.08
2019-01-05T02:29:05.632Z,1.11
2019-01-05T02:32:06.731Z,1.10
2019-01-05T02:35:16.801Z,1.09
2019-01-05T02:38:10.636Z,1.13
2019-01-05T02:41:21.460Z,1.12
2019-01-05T02:44:16.894Z,1.16
2019-01-05T02:47:24.270Z,1.11
2019-01-05T02:50:22.704Z,1.11
2019-01-05T02:53:21.559Z,1.13
2019-01-05T02:56:25.292Z,1.10
2019-01-05T02:59:35.498Z,1.11
2019-01-05T03:02:53.474Z,1.17
2019-01-05T03:06:18.454Z,1.13
2019-01-05T03:09:24.049Z,1.17
2019-01-05T03:12:26.873Z,1.11
2019-01-05T03:15:41.368Z,1.13
2019-01-05T03:18:56.673Z,1.10
2019-01-05T03:21:54.625Z,1.10
2019-01-05T03:25:16.912Z,1.16
2019-01-05T03:28:25.783Z,1.12
2019-01-05T03:31:41.077Z,1.11
2019-01-05T03:34:40.435Z,1.07
2019-01-05T03:37:48.899Z,1.10
2019-01-05T03:41:01.511Z,1.08
2019-01-05T03:43:54.023Z,1.09
2019-01-05T03:47:05.515Z,1.10
2019-01-05T03:50:30.120Z,1.04
2019-01-05T03:53:29.279Z,0.99
2019-01-05T03:56:49.199Z,1.05
2019-01-05T04:00:01.057Z,1.02
2019-01-05T04:03:13.920Z,0.98
2019-01-05T04:06:23.990Z,0.92
2019-01-05T04:09:19.519Z,0.93
2019-01-05T04:12:18.236Z,0.91
2019-01-05T04:15:37.432Z,0.94
2019-01-05T04:18:51.007Z,0.98
2019-01-05T04:21:56.653Z,0.94
2019-01-05T04:24:53.338Z,0.94
2019-01-05T04:28:21.439Z,0.92
2019-01-05T04:31:37.477Z,0.97
2019-01-05T04:34:46.055Z,0.87
2019-01-05T04:37:42.384Z,0.83
2019-01-05T04:40:57.695Z,0.78
2019-01-05T04:44:10.521Z,0.84
2019-01-05T04:47:41.998Z,0.87
2019-01-05T04:50:31.227Z,0.84
2019-01-05T04:53:55.583Z,0.86
2019-01-05T04:57:07.146Z,0.88
2019-01-05T05:00:16.924Z,0.85
2019-01-05T05:03:35.796Z,0.84
2019-01-05T05:06:48.462Z,0.77
2019-01-05T05:10:00.442Z,0.75
2019-01-05T05:12:53.652Z,0.76
2019-01-05T05:15:50.298Z,0.76
2019-01-05T05:18:45.766Z,0.74
2019-01-05T05:22:13.756Z,0.76
2019-01-05T05:25:18.764Z,0.75
2019-01-05T05:28:37.495Z,0.73
2019-01-05T05:31:50.065Z,0.66
2019-01-05T05:35:08.163Z,0.69
2019-01-05T05:38:17.779Z,0.70
2019-01-05T05:41:51.900Z,0.65
2019-01-05T05:44:54.176Z,0.63
2019-01-05T05:48:03.287Z,0.65
2019-01-05T05:51:05.893Z,0.63
2019-01-05T05:54:34.139Z,1.21
2019-01-05T05:57:40.830Z,1.34
2019-01-05T06:00:57.133Z,0.75
2019-01-05T06:04:05.326Z,0.69
2019-01-05T06:07:16.832Z,0.66
2019-01-05T06:10:27.170Z,0.65
2019-01-05T06:13:23.858Z,0.61
2019-01-05T06:16:52.032Z,0.60
2019-01-05T06:20:07.632Z,0.56
2019-01-05T06:23:33.223Z,0.57
2019-01-05T06:26:46.567Z,0.63
2019-01-05T06:29:50.460Z,0.59
2019-01-05T06:33:02.143Z,0.59
2019-01-05T06:36:17.107Z,0.58
2019-01-05T06:39:07.391Z,0.53
2019-01-05T06:42:12.312Z,0.58
2019-01-05T06:45:10.363Z,0.55
2019-01-05T06:48:10.354Z,0.54
2019-01-05T06:51:22.287Z,0.55
2019-01-05T06:54:18.429Z,0.53
2019-01-05T06:57:31.773Z,0.56
2019-01-05T07:00:59.819Z,0.55
2019-01-05T07:03:56.166Z,0.58
2019-01-05T07:06:56.191Z,0.57
2019-01-05T07:10:04.833Z,0.53
2019-01-05T07:12:58.116Z,0.49
2019-01-05T07:16:35.592Z,0.54
2019-01-05T07:19:57.150Z,0.57
2019-01-05T07:22:55.687Z,0.59
2019-01-05T07:26:04.324Z,0.57
2019-01-05T07:29:10.517Z,0.59
2019-01-05T07:32:12.663Z,0.63
2019-01-05T07:35:19.154Z,0.62
2019-01-05T07:38:14.103Z,0.64
2019-01-05T07:41:42.551Z,0.63
2019-01-05T07:44:50.955Z,0.67
2019-01-05T07:48:06.655Z,0.67
2019-01-05T07:51:19.496Z,0.66
2019-01-05T07:54:34.272Z,0.68
2019-01-05T07:57:53.347Z,0.75
2019-01-05T08:01:05.100Z,0.75
2019-01-05T08:04:02.518Z,0.78
2019-01-05T08:07:39.881Z,0.85
2019-01-05T08:10:45.043Z,0.83
2019-01-05T08:13:46.554Z,0.83
2019-01-05T08:16:58.670Z,0.79
2019-01-05T08:20:14.934Z,0.82
2019-01-05T08:23:23.748Z,0.84
2019-01-05T08:26:29.368Z,0.81
2019-01-05T08:29:42.763Z,0.84
2019-01-05T08:32:45.528Z,0.82
2019-01-05T08:35:51.692Z,0.84
2019-01-05T08:38:56.356Z,0.90
2019-01-05T08:41:53.796Z,0.88
2019-01-05T08:45:18.531Z,0.90
2019-01-05T08:48:15.811Z,0.93
2019-01-05T08:51:00.971Z,1.05
2019-01-05T08:54:24.791Z,1.04
2019-01-05T08:57:42.815Z,0.99
2019-01-05T09:00:46.069Z,1.00
2019-01-05T09:04:05.007Z,1.04
2019-01-05T09:07:10.035Z,1.09
2019-01-05T09:10:25.711Z,1.00
2019-01-05T09:13:50.527Z,1.07
2019-01-05T09:17:01.539Z,0.97
2019-01-05T09:20:00.714Z,1.02
2019-01-05T09:23:19.658Z,1.05
2019-01-05T09:26:29.548Z,1.13
2019-01-05T09:29:26.352Z,1.10
2019-01-05T09:32:47.498Z,1.11
2019-01-05T09:36:03.600Z,1.14
2019-01-05T09:39:07.160Z,1.14
2019-01-05T09:42:28.134Z,1.21
2019-01-05T09:45:43.522Z,1.22
2019-01-05T09:48:36.017Z,1.21
2019-01-05T09:51:41.749Z,1.20
2019-01-05T09:54:50.689Z,1.18
2019-01-05T09:58:02.459Z,1.13
2019-01-05T10:01:07.559Z,1.14
2019-01-05T10:04:25.559Z,1.18
2019-01-05T10:07:45.675Z,1.09
2019-01-05T10:10:48.859Z,1.10
2019-01-05T10:13:57.733Z,1.19
2019-01-05T10:17:06.490Z,1.28
2019-01-05T10:20:29.537Z,1.97
2019-01-05T10:23:38.602Z,1.98
2019-01-05T10:26:42.154Z,2.04
2019-01-05T10:29:52.916Z,2.09
2019-01-05T10:33:11.128Z,2.19
2019-01-05T10:36:26.906Z,2.05
2019-01-05T10:39:32.686Z,1.81
2019-01-05T10:42:51.466Z,2.74
2019-01-05T10:46:16.424Z,2.03
2019-01-05T10:49:18.396Z,2.00
2019-01-05T10:52:50.908Z,1.92
2019-01-05T10:55:59.657Z,1.82
2019-01-05T10:59:14.603Z,1.76
2019-01-05T11:02:19.704Z,1.77
2019-01-05T11:05:14.915Z,1.75
2019-01-05T11:08:27.723Z,1.84
2019-01-05T11:11:32.107Z,1.82
2019-01-05T11:14:43.323Z,1.76
2019-01-05T11:17:47.539Z,1.73
2019-01-05T11:20:52.985Z,1.80
2019-01-05T11:23:58.342Z,1.76
2019-01-05T11:27:04.442Z,1.77
2019-01-05T11:30:08.960Z,1.83
2019-01-05T11:33:13.163Z,1.87
2019-01-05T11:36:08.498Z,1.84
2019-01-05T11:39:13.817Z,1.80
2019-01-05T11:42:12.683Z,1.91
2019-01-05T11:45:21.849Z,1.90
2019-01-05T11:48:37.586Z,1.95
2019-01-05T11:51:43.056Z,1.87
2019-01-05T11:55:01.912Z,1.79
2019-01-05T11:58:06.806Z,1.78
2019-01-05T12:00:58.330Z,1.81
2019-01-05T12:04:38.566Z,1.80
2019-01-05T12:07:53.610Z,1.87
2019-01-05T12:10:59.519Z,1.88
2019-01-05T12:14:12.766Z,1.88
2019-01-05T12:17:32.907Z,1.86
2019-01-05T12:20:40.875Z,1.79
2019-01-05T12:23:53.515Z,1.80
2019-01-05T12:27:12.661Z,1.79
2019-01-05T12:30:17.739Z,1.89
2019-01-05T12:33:33.749Z,1.89
2019-01-05T12:36:26.293Z,1.90
2019-01-05T12:39:28.180Z,1.92
2019-01-05T12:42:41.985Z,1.91
2019-01-05T12:45:46.610Z,1.90
2019-01-05T12:49:01.428Z,1.98
2019-01-05T12:52:14.904Z,1.93
2019-01-05T12:55:46.896Z,1.96
2019-01-05T12:58:45.288Z,1.86
2019-01-05T13:02:00.777Z,1.83
2019-01-05T13:05:03.150Z,1.92
2019-01-05T13:08:03.676Z,2.05
2019-01-05T13:11:08.329Z,2.01
2019-01-05T13:14:24.360Z,2.07
2019-01-05T13:17:33.372Z,2.07
2019-01-05T13:20:46.303Z,2.07
2019-01-05T13:24:04.463Z,2.06
2019-01-05T13:26:58.355Z,2.05
2019-01-05T13:30:23.095Z,2.05
2019-01-05T13:33:37.409Z,2.09
2019-01-05T13:36:39.674Z,2.12
2019-01-05T13:39:34.640Z,2.12
2019-01-05T13:42:50.394Z,2.12
2019-01-05T13:45:58.968Z,2.20
2019-01-05T13:49:18.852Z,2.12
2019-01-05T13:52:16.962Z,2.18
2019-01-05T13:55:16.488Z,2.13
2019-01-05T13:58:03.040Z,2.18
2019-01-05T14:00:50.426Z,2.15
2019-01-05T14:03:47.285Z,2.17
2019-01-05T14:06:35.024Z,2.19
2019-01-05T14:09:27.561Z,2.22
2019-01-05T14:12:15.291Z,2.19
2019-01-05T14:15:09.160Z,2.22
2019-01-05T14:18:08.391Z,2.24
2019-01-05T14:20:50.136Z,2.23
2019-01-05T14:23:37.855Z,2.22
2019-01-05T14:26:25.575Z,2.22
2019-01-05T14:29:12.345Z,2.20
2019-01-05T14:32:18.486Z,2.19
2019-01-05T14:35:12.154Z,2.21
2019-01-05T14:38:02.615Z,2.17
2019-01-05T14:40:50.335Z,2.16
2019-01-05T14:43:53.243Z,2.14
2019-01-05T14:46:46.676Z,2.16
2019-01-05T14:49:37.182Z,2.15
2019-01-05T14:52:19.352Z,2.18
2019-01-05T14:55:16.384Z,2.20
2019-01-05T14:58:03.926Z,2.20
2019-01-05T15:00:57.788Z,2.16
2019-01-05T15:03:45.598Z,2.19
2019-01-05T15:06:33.316Z,2.12
2019-01-05T15:09:20.722Z,2.14
2019-01-05T15:12:07.388Z,2.09
2019-01-05T15:14:53.548Z,2.11
2019-01-05T15:17:53.080Z,2.05
2019-01-05T15:20:39.747Z,1.95
2019-01-05T15:23:21.858Z,2.04
2019-01-05T15:26:20.115Z,2.12
2019-01-05T15:29:10.723Z,2.13
2019-01-05T15:31:50.531Z,2.05
2019-01-05T15:34:37.345Z,2.07
2019-01-05T15:37:25.551Z,2.04
2019-01-05T15:40:22.307Z,2.00
2019-01-05T15:43:16.043Z,2.02
2019-01-05T15:46:19.047Z,2.04
2019-01-05T15:49:22.000Z,2.02
2019-01-05T15:52:03.614Z,2.02
2019-01-05T15:55:02.152Z,2.00
2019-01-05T15:57:48.622Z,2.04
2019-01-05T16:00:31.678Z,2.04
2019-01-05T16:03:18.266Z,2.07
2019-01-05T16:06:06.014Z,2.13
2019-01-05T16:09:09.082Z,2.09
2019-01-05T16:11:55.884Z,2.06
2019-01-05T16:14:43.683Z,2.03
2019-01-05T16:17:30.120Z,1.98
2019-01-05T16:20:24.660Z,2.06
2019-01-05T16:23:12.350Z,2.01
2019-01-05T16:26:00.715Z,1.99
2019-01-05T16:29:03.960Z,2.09
2019-01-05T16:31:50.678Z,2.00
2019-01-05T16:34:39.577Z,2.03
2019-01-05T16:37:33.227Z,2.05
2019-01-05T16:40:16.655Z,2.09
2019-01-05T16:43:04.575Z,2.11
2019-01-05T16:45:44.399Z,2.10
2019-01-05T16:48:32.305Z,2.07
2019-01-05T16:51:19.049Z,2.10
2019-01-05T16:54:06.817Z,2.08
2019-01-05T16:56:59.035Z,2.11
2019-01-05T17:00:02.215Z,2.10
2019-01-05T17:02:49.968Z,2.10
2019-01-05T17:05:36.711Z,2.08
2019-01-05T17:08:27.989Z,2.10
2019-01-05T17:11:28.026Z,2.07
2019-01-05T17:14:15.204Z,2.08
2019-01-05T17:17:08.822Z,2.13
2019-01-05T17:20:05.477Z,2.12
2019-01-05T17:22:52.108Z,2.09
2019-01-05T17:25:46.061Z,2.17
2019-01-05T17:28:49.505Z,2.08
2019-01-05T17:31:55.679Z,2.17
2019-01-05T17:34:40.279Z,2.11
2019-01-05T17:37:27.711Z,2.18
2019-01-05T17:40:24.640Z,2.12
2019-01-05T17:43:25.231Z,2.18
2019-01-05T17:46:31.453Z,2.32
2019-01-05T17:49:30.768Z,2.26
2019-01-05T17:52:21.523Z,2.26
2019-01-05T17:55:08.591Z,2.28
2019-01-05T17:58:02.725Z,2.24
2019-01-05T18:00:53.482Z,2.28
2019-01-05T18:03:40.494Z,2.25
2019-01-05T18:06:26.080Z,2.26
2019-01-05T18:09:12.251Z,2.27
2019-01-05T18:11:59.098Z,2.23
2019-01-05T18:14:53.308Z,2.26
2019-01-05T18:17:46.556Z,2.25
2019-01-05T18:20:34.204Z,2.25
2019-01-05T18:23:22.010Z,2.29
2019-01-05T18:26:09.894Z,2.30
2019-01-05T18:28:56.614Z,2.33
2019-01-05T18:31:56.847Z,2.32
2019-01-05T18:34:44.727Z,2.28
2019-01-05T18:37:35.583Z,2.28
2019-01-05T18:40:26.741Z,2.33
2019-01-05T18:43:17.974Z,2.35
2019-01-05T18:46:04.947Z,2.33
2019-01-05T18:48:55.717Z,2.31
2019-01-05T18:51:42.663Z,2.31
2019-01-05T18:54:30.893Z,2.35
2019-01-05T18:57:25.261Z,2.37
2019-01-05T19:00:13.134Z,2.36
2019-01-05T19:03:05.262Z,2.32
2019-01-05T19:06:02.396Z,2.38
2019-01-05T19:08:49.094Z,2.34
2019-01-05T19:11:37.590Z,2.36
2019-01-05T19:14:22.159Z,2.41
2019-01-05T19:17:08.835Z,2.38
2019-01-05T19:20:15.110Z,2.39
2019-01-05T19:23:08.994Z,2.41
2019-01-05T19:26:08.858Z,2.42
2019-01-05T19:29:05.566Z,2.37
2019-01-05T19:32:08.427Z,2.33
2019-01-05T19:34:55.185Z,2.36
2019-01-05T19:37:41.743Z,2.39
2019-01-05T19:40:28.255Z,2.47
2019-01-05T19:43:14.942Z,2.39
2019-01-05T19:46:11.885Z,2.40
2019-01-05T19:49:05.747Z,2.35
2019-01-05T19:52:02.584Z,2.41
2019-01-05T19:54:49.187Z,2.40
2019-01-05T19:57:52.271Z,2.47
2019-01-05T20:00:43.330Z,2.39
2019-01-05T20:03:40.177Z,2.41
2019-01-05T20:06:26.580Z,2.43
2019-01-05T20:09:13.235Z,2.40
2019-01-05T20:12:00.087Z,2.43
2019-01-05T20:14:46.573Z,2.42
2019-01-05T20:17:37.294Z,2.50
2019-01-05T20:20:22.138Z,2.49
2019-01-05T20:23:16.262Z,2.53
2019-01-05T20:25:55.254Z,2.54
2019-01-05T20:28:58.917Z,2.55
2019-01-05T20:31:45.314Z,2.59
2019-01-05T20:34:48.522Z,2.59
2019-01-05T20:37:27.599Z,2.61
2019-01-05T20:40:14.205Z,2.63
2019-01-05T20:43:20.474Z,2.65
2019-01-05T20:46:14.286Z,2.65
2019-01-05T20:49:17.095Z,2.71
2019-01-05T20:52:11.316Z,2.75
2019-01-05T20:55:14.489Z,2.70
2019-01-05T20:58:17.579Z,2.67
2019-01-05T21:01:08.377Z,2.69
2019-01-05T21:03:59.227Z,2.66
2019-01-05T21:06:56.311Z,2.67
2019-01-05T21:09:42.735Z,2.74
2019-01-05T21:12:28.085Z,2.69
2019-01-05T21:15:27.992Z,2.66
2019-01-05T21:18:16.097Z,2.61
2019-01-05T21:21:03.828Z,2.59
2019-01-05T21:23:46.162Z,2.59
2019-01-05T21:26:32.906Z,2.59
2019-01-05T21:29:35.792Z,2.57
2019-01-05T21:32:19.594Z,2.54
2019-01-05T21:35:06.132Z,2.55
2019-01-05T21:37:48.286Z,2.50
2019-01-05T21:40:36.022Z,2.50
2019-01-05T21:43:23.772Z,2.47
2019-01-05T21:46:27.522Z,2.49
2019-01-05T21:49:14.372Z,2.49
2019-01-05T21:52:20.378Z,2.51
2019-01-05T21:55:02.546Z,2.55
2019-01-05T21:57:49.163Z,2.56
2019-01-05T22:00:44.328Z,2.50
2019-01-05T22:03:31.255Z,2.54
2019-01-05T22:06:18.048Z,2.55
2019-01-05T22:09:04.928Z,2.53
2019-01-05T22:11:49.215Z,2.54
2019-01-05T22:14:36.529Z,2.58
2019-01-05T22:17:21.047Z,2.61
2019-01-05T22:20:08.845Z,2.58
2019-01-05T22:23:08.963Z,2.61
2019-01-05T22:25:55.571Z,2.53
2019-01-05T22:28:50.410Z,2.55
2019-01-05T22:31:37.218Z,2.57
2019-01-05T22:34:19.780Z,2.62
2019-01-05T22:37:09.236Z,2.63
2019-01-05T22:39:55.795Z,2.60
2019-01-05T22:42:52.866Z,2.65
2019-01-05T22:45:34.798Z,2.62
2019-01-05T22:48:21.256Z,2.70
2019-01-05T22:51:03.834Z,2.68
2019-01-05T22:53:57.382Z,2.72
2019-01-05T22:56:52.420Z,2.68
2019-01-05T22:59:40.148Z,2.65
2019-01-05T23:02:36.851Z,2.69
2019-01-05T23:05:22.055Z,2.77
2019-01-05T23:08:08.831Z,2.78
2019-01-05T23:11:05.735Z,2.85
2019-01-05T23:14:05.024Z,2.86
2019-01-05T23:16:52.747Z,2.93
2019-01-05T23:19:40.919Z,2.94
2019-01-05T23:22:25.210Z,2.90
2019-01-05T23:25:17.499Z,2.91
2019-01-05T23:28:04.257Z,2.97
2019-01-05T23:31:01.002Z,2.91
2019-01-05T23:33:51.252Z,2.96
2019-01-05T23:36:41.973Z,2.97
2019-01-05T23:39:48.030Z,2.91
2019-01-05T23:42:48.083Z,2.96
2019-01-05T23:45:31.668Z,2.91
2019-01-05T23:48:25.394Z,2.90
2019-01-05T23:51:08.306Z,2.93
2019-01-05T23:53:55.018Z,2.90
2019-01-05T23:56:55.207Z,2.93
2019-01-05T23:59:39.378Z,2.88
